Filed Under (Life) by Sean on February 13th, 2008 at 4:34 pm

Finally Gary has capitulated . . . we now have free wireless Internet at Onion Creek. They turn it off at 4 pm everyday but luckily my encrypted proxy technique I use whenever I’m on an open WAP circumvents it (it appears they only shut off port 80 when they stop providing access). So I’m sipping a delicious latte and enjoying the gorgeous weather and writing this post (of course it would even be better sipping a latte while at the controls of a twin turbojet aircraft).

If you want to practice your METAR decoding, here is the current weather:

KHOU 132153Z 00000KT 10SM CLR 16/M03 A3008 RMK AO2 SLP191 T01611033

Read my previous article on flying to get hints on how to decode this. Until next time, back to my latte (and PHP development framework research) . . . .

Tags: , , , ,



Comments
Derek on February 14th, 2008 at 8:22 am #

Will that magazine rack fit on the yoke of a twin turbojet aircraft…might as well take reading to air.

Sean on February 14th, 2008 at 12:30 pm #

Absolutely – not so sure about a side-stick though . . . .

Post a comment

Name: 
Email: 
URL: 
Comments: